createdAt,value
2019-06-20T08:47:58.197Z,24.82
2019-06-20T08:50:28.448Z,24.95
2019-06-20T08:52:58.487Z,24.88
2019-06-20T08:55:28.525Z,24.82
2019-06-20T08:57:59.438Z,24.72
2019-06-20T09:00:30.486Z,24.74
2019-06-20T09:03:00.424Z,24.75
2019-06-20T09:05:30.920Z,24.90
2019-06-20T09:10:38.540Z,25.66
2019-06-20T09:13:09.176Z,25.84
2019-06-20T09:15:38.495Z,25.83
2019-06-20T09:18:07.708Z,25.71
2019-06-20T09:20:37.097Z,25.64
2019-06-20T09:23:06.627Z,25.64
2019-06-20T09:25:36.092Z,25.42
2019-06-20T09:28:07.081Z,25.41
2019-06-20T09:30:37.082Z,25.47
2019-06-20T09:33:06.584Z,25.71
2019-06-20T09:35:35.985Z,25.94
2019-06-20T09:38:05.466Z,26.38
2019-06-20T09:40:34.724Z,26.41
2019-06-20T09:43:03.986Z,26.25
2019-06-20T09:45:33.345Z,26.05
2019-06-20T09:48:02.820Z,25.86
2019-06-20T09:50:32.230Z,25.90
2019-06-20T09:53:01.670Z,26.04
2019-06-20T09:55:30.856Z,26.22
2019-06-20T09:58:00.300Z,26.58
2019-06-20T10:00:31.200Z,26.63
2019-06-20T10:03:03.726Z,26.79
2019-06-20T10:05:32.942Z,26.79
2019-06-20T10:08:02.243Z,26.78
2019-06-20T10:10:31.543Z,26.50
2019-06-20T10:13:01.026Z,26.68
2019-06-20T10:15:30.561Z,26.72
2019-06-20T10:17:59.639Z,26.56
2019-06-20T10:20:28.950Z,26.49
2019-06-20T10:22:58.179Z,26.48
2019-06-20T10:25:27.272Z,26.57
2019-06-20T10:27:57.854Z,26.85
2019-06-20T10:30:27.862Z,27.01
2019-06-20T10:32:57.785Z,27.35
2019-06-20T10:35:27.368Z,27.65
2019-06-20T10:37:57.140Z,27.75
2019-06-20T10:40:26.600Z,28.16
2019-06-20T10:42:56.935Z,28.26
2019-06-20T10:45:26.947Z,28.26
2019-06-20T10:47:56.392Z,28.38
2019-06-20T10:50:25.680Z,28.72
2019-06-20T10:52:55.049Z,28.93
2019-06-20T10:55:24.896Z,28.85
2019-06-20T10:57:54.275Z,28.62
2019-06-20T11:00:31.256Z,28.82
2019-06-20T11:02:55.274Z,28.95
2019-06-20T11:05:25.128Z,29.09
2019-06-20T11:07:54.219Z,28.77
2019-06-20T11:10:24.179Z,28.50
2019-06-20T11:12:55.966Z,28.24
2019-06-20T11:15:24.471Z,28.10
2019-06-20T11:17:56.319Z,27.77
2019-06-20T11:20:26.073Z,27.57
2019-06-20T11:22:55.205Z,27.40
2019-06-20T11:25:24.302Z,27.14
2019-06-20T11:27:53.513Z,26.76
2019-06-20T11:30:24.516Z,26.32
2019-06-20T11:32:53.805Z,26.36
2019-06-20T11:35:22.916Z,26.57
2019-06-20T11:37:52.360Z,26.76
2019-06-20T11:40:21.539Z,26.72
2019-06-20T11:42:50.756Z,26.70
2019-06-20T11:45:20.086Z,26.92
2019-06-20T11:47:49.150Z,26.80
2019-06-20T11:50:18.591Z,26.46
2019-06-20T11:52:47.660Z,26.11
2019-06-20T11:55:17.685Z,25.75
2019-06-20T11:57:46.938Z,25.84
2019-06-20T12:00:17.681Z,25.75
2019-06-20T12:02:50.426Z,25.72
2019-06-20T12:05:19.720Z,25.59
2019-06-20T12:07:49.991Z,25.78
2019-06-20T12:10:19.535Z,25.90
2019-06-20T12:12:49.151Z,25.81
2019-06-20T12:15:19.374Z,25.58
2019-06-20T12:17:49.433Z,25.61
2019-06-20T12:20:20.841Z,25.54
2019-06-20T12:22:50.736Z,25.62
2019-06-20T12:25:20.930Z,25.43
2019-06-20T12:27:50.495Z,25.40
2019-06-20T12:30:20.228Z,25.33
2019-06-20T12:32:49.710Z,25.28
2019-06-20T12:35:19.178Z,25.28
2019-06-20T12:37:49.799Z,25.24
2019-06-20T12:40:19.395Z,25.30
2019-06-20T12:42:49.278Z,25.37
2019-06-20T12:45:19.021Z,25.34
2019-06-20T12:47:48.282Z,25.26
2019-06-20T12:50:19.189Z,25.14
2019-06-20T12:52:49.646Z,25.07
2019-06-20T12:55:18.939Z,24.96
2019-06-20T12:57:48.569Z,24.92
2019-06-20T13:00:18.839Z,24.84
2019-06-20T13:02:49.578Z,24.89
2019-06-20T13:05:19.450Z,24.95
2019-06-20T13:07:48.640Z,24.93
2019-06-20T13:10:18.035Z,24.94
2019-06-20T13:12:48.713Z,24.97
2019-06-20T13:15:19.412Z,25.01
2019-06-20T13:17:49.125Z,25.08
2019-06-20T13:20:19.968Z,24.98
2019-06-20T13:22:49.628Z,24.93
2019-06-20T13:25:19.042Z,24.96
2019-06-20T13:27:48.823Z,24.87
2019-06-20T13:30:20.499Z,24.85
2019-06-20T13:32:49.715Z,24.88
2019-06-20T13:35:18.784Z,24.97
2019-06-20T13:37:49.773Z,24.93
2019-06-20T13:40:19.627Z,24.96
2019-06-20T13:42:50.311Z,25.00
2019-06-20T13:45:22.422Z,25.11
2019-06-20T13:47:51.693Z,25.17
2019-06-20T13:50:21.855Z,25.28
2019-06-20T13:52:51.579Z,25.31
2019-06-20T13:55:20.789Z,25.42
2019-06-20T13:57:49.977Z,25.47
2019-06-20T14:00:20.326Z,25.47
2019-06-20T14:02:51.531Z,25.47
2019-06-20T14:05:20.640Z,25.49
2019-06-20T14:07:53.230Z,25.40
2019-06-20T14:10:20.718Z,25.42
2019-06-20T14:12:50.304Z,25.39
2019-06-20T14:15:19.947Z,25.40
2019-06-20T14:17:49.905Z,25.52
2019-06-20T14:20:20.628Z,25.59
2019-06-20T14:22:49.962Z,25.69
2019-06-20T14:25:20.824Z,25.70
2019-06-20T14:27:51.566Z,25.63
2019-06-20T14:30:21.983Z,25.56
2019-06-20T14:32:53.773Z,25.53
2019-06-20T14:35:24.139Z,25.37
2019-06-20T14:37:55.398Z,25.32
2019-06-20T14:40:24.835Z,25.25
2019-06-20T14:42:54.454Z,25.26
2019-06-20T14:45:24.440Z,25.26
2019-06-20T14:47:53.657Z,25.28
2019-06-20T14:50:23.161Z,25.24
2019-06-20T14:52:53.963Z,25.09
2019-06-20T14:55:25.681Z,25.07
2019-06-20T14:58:00.908Z,25.00
2019-06-20T15:00:30.555Z,25.01
2019-06-20T15:02:59.804Z,24.96
2019-06-20T15:05:28.939Z,25.06
2019-06-20T15:07:58.461Z,25.27
2019-06-20T15:10:27.554Z,25.51
2019-06-20T15:12:56.656Z,25.61
2019-06-20T15:15:25.725Z,25.64
2019-06-20T15:17:56.363Z,25.77
2019-06-20T15:20:26.162Z,25.83
2019-06-20T15:22:56.681Z,25.89
2019-06-20T15:25:25.936Z,25.94
2019-06-20T15:27:55.797Z,25.92
2019-06-20T15:30:26.220Z,26.13
2019-06-20T15:33:07.623Z,26.13
2019-06-20T15:35:26.341Z,26.20
2019-06-20T15:37:55.755Z,26.30
2019-06-20T15:40:25.031Z,26.34
2019-06-20T15:42:55.374Z,26.37
2019-06-20T15:45:26.162Z,26.22
2019-06-20T15:47:55.402Z,26.29
2019-06-20T15:50:24.638Z,26.35
2019-06-20T15:52:53.971Z,26.36
2019-06-20T15:55:23.618Z,26.39
2019-06-20T15:57:54.158Z,26.46
2019-06-20T16:00:24.428Z,26.48
2019-06-20T16:03:05.893Z,26.34
2019-06-20T16:05:24.316Z,26.25
2019-06-20T16:07:53.588Z,26.25
2019-06-20T16:10:22.820Z,26.20
2019-06-20T16:12:51.944Z,26.19
2019-06-20T16:15:24.267Z,26.25
2019-06-20T16:17:53.732Z,26.13
2019-06-20T16:20:24.230Z,26.02
2019-06-20T16:22:53.756Z,25.93
2019-06-20T16:25:23.333Z,25.90
2019-06-20T16:27:52.823Z,25.84
2019-06-20T16:30:22.843Z,25.86
2019-06-20T16:32:52.923Z,25.79
2019-06-20T16:35:22.745Z,25.87
2019-06-20T16:37:51.899Z,25.86
2019-06-20T16:40:46.125Z,25.79
2019-06-20T16:43:16.630Z,25.95
2019-06-20T16:45:46.306Z,25.96
2019-06-20T16:48:15.736Z,25.88
2019-06-20T16:50:45.094Z,25.74
2019-06-20T16:53:21.869Z,25.72
2019-06-20T16:55:51.455Z,25.61
2019-06-20T16:58:20.789Z,25.63
2019-06-20T17:00:49.903Z,25.56
2019-06-20T17:03:19.248Z,25.55
2019-06-20T17:05:48.599Z,25.55
2019-06-20T17:08:17.818Z,25.30
2019-06-20T17:10:46.940Z,25.27
2019-06-20T17:13:16.146Z,25.24
2019-06-20T17:15:45.216Z,25.30
2019-06-20T17:18:14.672Z,25.35
2019-06-20T17:39:29.368Z,25.49
2019-06-20T17:41:58.865Z,25.39
2019-06-20T17:44:28.009Z,25.28
2019-06-20T17:46:57.165Z,25.27
2019-06-20T17:49:26.334Z,25.21
2019-06-20T17:51:55.599Z,25.15
2019-06-20T17:54:24.821Z,25.07
2019-06-20T17:56:53.904Z,25.04
2019-06-20T17:59:23.117Z,25.05
2019-06-20T18:01:52.288Z,25.04
2019-06-20T18:04:21.538Z,24.94
2019-06-20T18:06:50.858Z,24.88
2019-06-20T18:09:19.923Z,24.93
2019-06-20T18:11:49.322Z,24.98
2019-06-20T18:14:18.444Z,24.90
2019-06-20T18:16:47.715Z,24.89
2019-06-20T18:19:16.885Z,24.91
2019-06-20T18:21:46.119Z,24.84
2019-06-20T18:24:15.206Z,24.79
2019-06-20T18:26:44.437Z,24.71
2019-06-20T18:29:13.945Z,24.64
2019-06-20T18:31:43.001Z,24.59
2019-06-20T18:34:12.076Z,24.57
2019-06-20T18:36:43.412Z,24.56
2019-06-20T18:39:12.522Z,24.50
2019-06-20T18:41:42.030Z,24.45
2019-06-20T18:44:11.251Z,24.38
2019-06-20T18:46:40.354Z,24.33
2019-06-20T18:49:09.396Z,24.23
2019-06-20T18:51:39.071Z,24.18
2019-06-20T18:54:08.436Z,24.11
2019-06-20T18:56:37.712Z,24.06
2019-06-20T18:59:06.913Z,24.03
2019-06-20T19:01:39.022Z,24.02
2019-06-20T19:04:08.073Z,23.98
2019-06-20T19:06:37.173Z,23.96
2019-06-20T19:09:08.322Z,23.91
2019-06-20T19:11:37.484Z,23.89
2019-06-20T19:14:07.157Z,23.90
2019-06-20T19:16:37.492Z,23.96
2019-06-20T19:19:07.002Z,23.96
2019-06-20T19:21:36.363Z,23.88
2019-06-20T19:24:05.634Z,23.84
2019-06-20T19:26:34.857Z,23.80
2019-06-20T19:29:04.165Z,23.72
2019-06-20T19:31:33.253Z,23.72
2019-06-20T19:34:02.525Z,23.62
2019-06-20T19:36:31.629Z,23.55
2019-06-20T19:39:00.935Z,23.52
2019-06-20T19:41:30.034Z,23.45
2019-06-20T19:43:59.247Z,23.47
2019-06-20T19:46:28.317Z,23.36
2019-06-20T19:48:57.795Z,23.29
2019-06-20T19:51:26.903Z,23.27
2019-06-20T19:53:56.409Z,23.20
2019-06-20T19:56:25.514Z,23.11
2019-06-20T19:58:54.589Z,23.09
2019-06-20T20:01:23.974Z,23.04
2019-06-20T20:03:53.055Z,23.08
2019-06-20T20:06:22.198Z,23.05
2019-06-20T20:08:51.383Z,23.07
2019-06-20T20:11:20.639Z,22.92
2019-06-20T20:13:49.821Z,22.85
2019-06-20T20:16:19.056Z,22.79
2019-06-20T20:18:48.333Z,22.74
2019-06-20T20:21:17.462Z,22.68
2019-06-20T20:23:46.655Z,22.60
2019-06-20T20:26:16.020Z,22.55
2019-06-20T20:28:45.505Z,22.54
2019-06-20T20:31:14.615Z,22.57
2019-06-20T20:33:43.726Z,22.45
2019-06-20T20:36:24.330Z,22.45
2019-06-20T20:38:43.973Z,22.40
2019-06-20T20:41:13.254Z,22.35
2019-06-20T20:43:42.638Z,22.28
2019-06-20T20:46:12.705Z,22.16
2019-06-20T20:48:41.886Z,22.06
2019-06-20T20:51:11.027Z,22.02
2019-06-20T20:53:40.470Z,21.93
2019-06-20T20:56:09.637Z,21.87
2019-06-20T20:58:38.873Z,21.73
2019-06-20T21:01:20.360Z,21.68
2019-06-20T21:03:49.455Z,21.59
2019-06-20T21:06:19.016Z,21.46
2019-06-20T21:08:48.242Z,21.37
2019-06-20T21:11:17.470Z,21.29
2019-06-20T21:13:46.850Z,21.19
2019-06-20T21:16:16.020Z,21.11
2019-06-20T21:18:45.269Z,21.08
2019-06-20T21:21:14.566Z,21.11
2019-06-20T21:23:43.756Z,21.11
2019-06-20T21:26:12.952Z,21.15
2019-06-20T21:28:42.008Z,21.07
2019-06-20T21:31:11.309Z,21.01
2019-06-20T21:33:40.437Z,20.97
2019-06-20T21:36:09.742Z,20.92
2019-06-20T21:38:39.122Z,20.88
2019-06-20T21:41:08.195Z,20.87
2019-06-20T21:43:37.574Z,20.83
2019-06-20T21:46:07.062Z,20.85
2019-06-20T21:48:36.200Z,20.84
2019-06-20T21:51:05.413Z,20.88
2019-06-20T21:53:34.825Z,20.88
2019-06-20T21:56:03.925Z,20.89
2019-06-20T21:58:33.128Z,20.90
2019-06-20T22:01:03.081Z,20.89
2019-06-20T22:03:32.149Z,20.94
2019-06-20T22:06:01.365Z,20.90
2019-06-20T22:08:30.660Z,20.89
2019-06-20T22:10:59.828Z,20.90
2019-06-20T22:13:29.109Z,20.95
2019-06-20T22:15:58.316Z,20.99
2019-06-20T22:18:27.887Z,21.04
2019-06-20T22:20:57.041Z,21.08
2019-06-20T22:23:26.180Z,21.09
2019-06-20T22:25:55.299Z,21.12
2019-06-20T22:28:24.608Z,21.25
2019-06-20T22:30:54.573Z,21.23
2019-06-20T22:33:23.811Z,21.20
2019-06-20T22:35:52.964Z,21.16
2019-06-20T22:38:22.389Z,21.15
2019-06-20T22:40:51.558Z,21.12
2019-06-20T22:43:20.701Z,21.12
2019-06-20T22:45:49.880Z,21.09
2019-06-20T22:48:19.122Z,21.09
2019-06-20T22:50:50.300Z,21.08
2019-06-20T22:53:19.522Z,21.05
2019-06-20T22:55:48.753Z,21.01
2019-06-20T22:58:18.002Z,20.98
2019-06-20T23:00:47.222Z,20.97
2019-06-20T23:03:16.471Z,21.02
2019-06-20T23:05:45.750Z,21.00
2019-06-20T23:08:14.832Z,21.05
2019-06-20T23:10:44.149Z,21.02
2019-06-20T23:13:13.606Z,20.97
2019-06-20T23:15:42.707Z,20.98
2019-06-20T23:18:11.754Z,20.89
2019-06-20T23:20:41.102Z,20.84
2019-06-20T23:23:10.192Z,20.79
2019-06-20T23:25:41.186Z,20.76
2019-06-20T23:28:10.531Z,20.76
2019-06-20T23:30:39.799Z,20.75
2019-06-20T23:33:08.937Z,20.76
2019-06-20T23:35:38.218Z,20.73
2019-06-20T23:38:07.500Z,20.69
2019-06-20T23:40:36.812Z,20.66
2019-06-20T23:43:06.069Z,20.64
2019-06-20T23:45:35.155Z,20.60
2019-06-20T23:48:04.457Z,20.57
2019-06-20T23:50:33.637Z,20.55
2019-06-20T23:53:08.024Z,20.53
2019-06-20T23:55:37.082Z,20.51
2019-06-20T23:58:06.233Z,20.53
